Time;durP1;ratioP1;P1;durP2;ratioP2;P2;SDS_P1;SDS_P2;PMS_P1;PMS_P2;Temp;Humidity;BMP_temperature;BMP_pressure;BME280_temperature;BME280_humidity;BME280_pressure;Samples;Min_cycle;Max_cycle;Signal;HPM_P1;HPM_P2
2023/12/09 00:00:24;;;;;;;4.63;2.92;;;;;;;17.69;54.63;100581.09;20783029;28;20474;-60
2023/12/09 00:10:26;;;;;;;4.60;2.72;;;;;;;17.80;54.49;100585.47;20764948;28;20045;-60
2023/12/09 00:20:28;;;;;;;4.15;2.15;;;;;;;17.84;54.30;100580.66;20777647;28;20053;-60
2023/12/09 00:30:30;;;;;;;3.88;2.10;;;;;;;17.93;54.20;100584.31;20783412;28;20060;-60
2023/12/09 00:40:32;;;;;;;6.88;2.92;;;;;;;17.95;54.14;100588.59;20783759;28;20059;-60
2023/12/09 00:50:34;;;;;;;5.65;2.60;;;;;;;17.96;54.10;100582.22;20780733;28;20049;-60
2023/12/09 01:00:36;;;;;;;6.45;3.05;;;;;;;17.98;54.45;100590.13;20778455;28;20081;-60
2023/12/09 01:10:37;;;;;;;6.07;2.63;;;;;;;18.00;54.49;100574.66;20779949;28;20057;-60
2023/12/09 01:20:39;;;;;;;6.43;2.40;;;;;;;18.02;54.38;100575.41;20772879;28;20231;-60
2023/12/09 01:30:41;;;;;;;5.53;2.65;;;;;;;18.05;54.35;100579.66;20776826;28;20052;-60
2023/12/09 01:40:43;;;;;;;4.45;2.40;;;;;;;18.02;54.39;100586.19;20761573;28;20049;-60
2023/12/09 01:50:45;;;;;;;4.65;2.90;;;;;;;18.06;54.44;100584.88;20763001;28;20053;-60
2023/12/09 02:00:47;;;;;;;5.43;2.50;;;;;;;18.02;54.67;100588.88;20780555;28;20054;-60
2023/12/09 02:10:57;;;;;;;6.28;2.78;;;;;;;18.00;54.60;100574.66;20769873;28;20156;-61
2023/12/09 02:21:00;;;;;;;4.60;2.17;;;;;;;18.05;54.77;100568.88;20786572;28;20057;-60
2023/12/09 02:31:23;;;;;;;6.05;2.42;;;;;;;18.06;54.73;100557.94;20792358;28;20049;-60
2023/12/09 02:41:26;;;;;;;5.75;2.67;;;;;;;18.06;54.61;100541.78;20789472;28;20053;-60
2023/12/09 02:51:28;;;;;;;5.00;2.45;;;;;;;18.05;54.83;100534.72;20786017;28;20053;-60
2023/12/09 03:01:30;;;;;;;5.28;2.38;;;;;;;18.05;54.98;100523.09;20786472;28;20053;-60
2023/12/09 03:11:32;;;;;;;5.78;2.40;;;;;;;18.05;55.00;100507.78;20786545;28;20072;-60
2023/12/09 03:21:33;;;;;;;5.45;2.47;;;;;;;18.07;54.87;100508.47;20773278;28;20115;-60
2023/12/09 03:31:39;;;;;;;5.88;2.42;;;;;;;17.93;55.16;100473.91;20783477;28;20049;-60
2023/12/09 03:41:41;;;;;;;7.80;2.67;;;;;;;17.99;55.31;100500.25;20787431;28;20049;-60
2023/12/09 03:51:43;;;;;;;6.57;2.80;;;;;;;17.91;55.59;100484.84;20789429;28;20183;-60
2023/12/09 04:01:48;;;;;;;7.53;2.70;;;;;;;17.88;55.60;100489.66;20778711;28;20127;-60
2023/12/09 04:11:50;;;;;;;4.80;2.10;;;;;;;17.87;55.67;100477.19;20784047;28;20049;-60
2023/12/09 04:21:52;;;;;;;6.47;2.28;;;;;;;17.89;55.64;100488.66;20779758;28;20507;-60
2023/12/09 04:31:54;;;;;;;5.97;2.42;;;;;;;17.89;55.70;100477.88;20780825;28;20464;-60
2023/12/09 04:41:57;;;;;;;6.28;2.40;;;;;;;17.92;55.67;100488.38;20779808;28;20045;-60
2023/12/09 04:51:59;;;;;;;5.22;2.35;;;;;;;17.89;55.72;100477.88;20784232;28;20058;-60
2023/12/09 05:02:00;;;;;;;5.47;2.30;;;;;;;17.87;55.81;100475.34;20760500;28;20080;-60
2023/12/09 05:12:02;;;;;;;4.85;2.08;;;;;;;17.91;55.58;100465.13;20775638;28;20383;-60
2023/12/09 05:22:04;;;;;;;5.57;2.10;;;;;;;17.93;55.72;100460.44;20778511;28;20049;-60
2023/12/09 05:32:06;;;;;;;3.45;1.80;;;;;;;17.94;55.53;100454.06;20775683;28;20132;-60
2023/12/09 05:42:08;;;;;;;4.68;2.33;;;;;;;17.95;55.33;100461.16;20784926;28;20057;-60
2023/12/09 05:52:10;;;;;;;4.82;2.20;;;;;;;17.94;55.43;100448.69;20771732;28;20060;-60
2023/12/09 06:02:11;;;;;;;6.15;2.08;;;;;;;17.93;55.43;100431.69;20805521;28;20544;-61
2023/12/09 06:12:13;;;;;;;4.72;1.80;;;;;;;17.94;55.48;100403.75;20796220;28;20470;-61
2023/12/09 06:22:15;;;;;;;4.53;1.92;;;;;;;17.95;55.30;100396.50;20791519;28;20427;-61
2023/12/09 06:32:17;;;;;;;5.65;2.30;;;;;;;17.93;55.33;100390.41;20790523;28;20045;-61
2023/12/09 06:42:19;;;;;;;3.92;1.92;;;;;;;17.96;55.61;100387.44;20798050;28;20128;-62
2023/12/09 06:52:21;;;;;;;4.95;2.00;;;;;;;17.90;57.05;100371.88;20785528;28;20456;-65
2023/12/09 07:02:23;;;;;;;7.28;2.35;;;;;;;17.77;57.84;100380.28;20793694;28;20061;-60
2023/12/09 07:12:25;;;;;;;4.95;2.38;;;;;;;17.74;58.26;100357.22;20786828;28;20361;-60
2023/12/09 07:22:27;;;;;;;4.80;1.85;;;;;;;17.83;58.13;100340.16;20786507;28;20495;-60
2023/12/09 07:32:29;;;;;;;6.47;2.25;;;;;;;18.05;57.09;100331.84;20776273;28;20053;-60
2023/12/09 07:42:31;;;;;;;4.65;1.55;;;;;;;18.10;56.47;100334.94;20779410;28;20104;-60
2023/12/09 07:52:33;;;;;;;5.70;1.77;;;;;;;18.14;56.03;100303.16;20762030;28;20041;-60
2023/12/09 08:02:35;;;;;;;2.58;1.80;;;;;;;18.13;55.57;100293.41;20791478;28;20048;-60
2023/12/09 08:12:37;;;;;;;2.80;1.15;;;;;;;18.13;55.26;100280.75;20787344;28;20041;-60
2023/12/09 08:22:39;;;;;;;3.72;1.60;;;;;;;18.14;55.03;100273.53;20783909;28;20524;-60
2023/12/09 08:32:41;;;;;;;6.72;2.25;;;;;;;17.92;55.48;100256.78;20776086;28;20567;-64
2023/12/09 08:42:44;;;;;;;4.32;1.55;;;;;;;17.95;55.50;100259.16;20757078;28;20499;-62
2023/12/09 08:52:46;;;;;;;4.68;1.42;;;;;;;18.09;55.06;100250.56;20751307;28;21948;-62
2023/12/09 09:02:49;;;;;;;5.95;1.50;;;;;;;18.28;54.91;100227.19;20767952;28;20557;-64
2023/12/09 09:12:51;;;;;;;4.43;1.60;;;;;;;18.50;54.39;100212.38;20764403;28;20430;-64
2023/12/09 09:22:53;;;;;;;3.42;1.52;;;;;;;18.63;53.86;100187.69;20759055;28;20203;-63
2023/12/09 09:32:55;;;;;;;3.53;1.67;;;;;;;18.84;53.41;100173.84;20766151;28;20092;-63
2023/12/09 09:42:58;;;;;;;3.50;1.35;;;;;;;18.94;52.93;100176.38;20764811;28;20053;-63
2023/12/09 09:53:03;;;;;;;8.05;2.58;;;;;;;18.97;54.03;100165.31;20748237;28;20144;-63
2023/12/09 10:03:05;;;;;;;7.88;2.78;;;;;;;19.06;54.23;100131.13;20774200;28;20049;-63
2023/12/09 10:13:07;;;;;;;10.98;4.35;;;;;;;19.09;54.27;100095.72;20773149;28;20056;-64
2023/12/09 10:23:09;;;;;;;9.38;3.22;;;;;;;19.15;54.23;100056.47;20776299;28;20081;-65
2023/12/09 10:33:11;;;;;;;8.43;2.85;;;;;;;19.17;53.96;100024.78;20783886;28;20060;-65
2023/12/09 10:43:13;;;;;;;10.35;3.40;;;;;;;19.18;53.89;99983.28;20773396;28;20111;-64
2023/12/09 10:53:15;;;;;;;6.18;2.55;;;;;;;19.17;53.69;99960.03;20788187;28;20057;-64
2023/12/09 11:03:17;;;;;;;9.18;3.83;;;;;;;19.17;53.74;99941.13;20772531;28;20057;-64
2023/12/09 11:13:19;;;;;;;6.13;3.10;;;;;;;19.24;55.37;99912.47;20785926;28;20060;-65
2023/12/09 11:23:21;;;;;;;6.53;2.67;;;;;;;19.24;55.91;99890.03;20772718;28;20049;-64
2023/12/09 11:33:24;;;;;;;7.00;2.40;;;;;;;19.17;55.83;99846.69;20771856;28;20049;-64
2023/12/09 11:43:27;;;;;;;5.53;2.05;;;;;;;19.22;55.69;99822.75;20723260;28;20059;-64
2023/12/09 11:53:28;;;;;;;5.10;1.80;;;;;;;19.21;55.85;99821.06;20748810;28;20053;-65
2023/12/09 12:03:31;;;;;;;3.70;1.85;;;;;;;19.18;56.38;99767.44;20764679;28;20071;-61
2023/12/09 12:13:33;;;;;;;4.95;1.55;;;;;;;19.16;56.30;99750.59;20769598;28;20060;-64
2023/12/09 12:23:35;;;;;;;6.20;1.85;;;;;;;19.22;56.29;99714.81;20755777;28;20418;-64
2023/12/09 12:33:37;;;;;;;3.85;1.38;;;;;;;19.22;56.54;99693.22;20745144;28;20089;-63
2023/12/09 12:43:39;;;;;;;3.15;1.30;;;;;;;19.28;56.73;99670.94;20748789;28;20073;-63
2023/12/09 12:53:40;;;;;;;3.00;1.33;;;;;;;19.32;56.68;99646.31;20712698;28;20052;-64
2023/12/09 13:03:43;;;;;;;4.60;1.30;;;;;;;19.35;56.75;99605.47;20744733;28;20433;-63
2023/12/09 13:13:45;;;;;;;3.28;0.95;;;;;;;19.33;56.66;99572.44;20737205;28;20070;-64
2023/12/09 13:23:46;;;;;;;1.63;0.90;;;;;;;19.34;56.48;99545.28;20749489;28;20132;-64
2023/12/09 13:33:48;;;;;;;3.30;1.00;;;;;;;19.31;56.00;99517.81;20747799;28;20057;-65
2023/12/09 13:43:50;;;;;;;2.75;0.88;;;;;;;19.26;55.73;99491.38;20746051;28;20057;-66
2023/12/09 13:53:53;;;;;;;1.92;0.88;;;;;;;19.21;55.84;99464.94;20738341;28;20065;-62
2023/12/09 14:03:55;;;;;;;2.63;0.82;;;;;;;19.22;56.27;99423.44;20739127;28;20049;-61
2023/12/09 14:13:57;;;;;;;2.40;0.82;;;;;;;19.22;56.04;99385.66;20775974;28;20057;-65
2023/12/09 14:23:59;;;;;;;2.78;1.10;;;;;;;19.22;55.97;99331.72;20784584;28;20521;-63
2023/12/09 14:34:01;;;;;;;3.28;0.93;;;;;;;19.17;55.86;99296.34;20792960;28;20056;-62
2023/12/09 14:44:03;;;;;;;2.70;0.90;;;;;;;19.12;55.67;99247.53;20783647;28;20041;-63
2023/12/09 14:54:11;;;;;;;2.88;0.75;;;;;;;19.02;55.63;99185.75;20788845;28;20148;-62
2023/12/09 15:04:17;;;;;;;2.53;0.90;;;;;;;19.03;55.47;99165.03;20792357;28;20088;-62
2023/12/09 15:14:19;;;;;;;2.30;0.80;;;;;;;18.94;55.30;99140.78;20773089;28;20049;-66
2023/12/09 15:24:21;;;;;;;2.25;0.85;;;;;;;18.93;55.46;99111.34;20767160;28;20049;-65
2023/12/09 15:34:24;;;;;;;2.63;0.88;;;;;;;18.89;56.31;99083.91;20764507;28;20045;-69
2023/12/09 15:44:30;;;;;;;1.70;0.75;;;;;;;18.98;60.90;99034.25;20738739;28;20132;-66
2023/12/09 15:54:32;;;;;;;5.28;1.30;;;;;;;18.89;59.87;98981.44;20755808;28;20413;-66
2023/12/09 16:04:33;;;;;;;1.95;0.90;;;;;;;18.72;65.15;98977.31;20741586;28;20057;-64
2023/12/09 16:14:35;;;;;;;6.80;2.03;;;;;;;18.59;68.79;98969.88;20743472;28;20573;-66
2023/12/09 16:24:38;;;;;;;3.15;1.02;;;;;;;18.84;68.21;98905.69;20753379;28;20049;-64
2023/12/09 16:34:40;;;;;;;1.52;0.90;;;;;;;18.90;68.62;98902.22;20753107;28;20052;-63
2023/12/09 16:44:42;;;;;;;2.25;0.93;;;;;;;18.80;67.83;98896.31;20764989;28;20604;-66
2023/12/09 16:54:44;;;;;;;2.65;0.82;;;;;;;18.66;67.31;98863.84;20774146;28;20049;-65
2023/12/09 17:04:47;;;;;;;1.92;0.85;;;;;;;18.69;65.73;98814.94;20755590;28;20053;-66
2023/12/09 17:14:49;;;;;;;2.03;0.80;;;;;;;18.65;65.37;98789.41;20757769;28;20432;-67
2023/12/09 17:24:51;;;;;;;1.98;0.80;;;;;;;18.63;64.05;98771.75;20747571;28;20087;-67
2023/12/09 17:34:52;;;;;;;1.73;0.50;;;;;;;18.67;63.56;98749.63;20738625;28;20053;-66
2023/12/09 17:44:54;;;;;;;1.27;0.80;;;;;;;18.61;63.56;98725.31;20765515;28;20045;-66
2023/12/09 17:54:56;;;;;;;2.00;0.80;;;;;;;18.53;63.47;98691.22;20795588;28;20056;-66
2023/12/09 18:04:58;;;;;;;1.83;0.60;;;;;;;18.36;63.25;98659.19;20793314;28;20046;-66
2023/12/09 18:15:00;;;;;;;1.58;0.80;;;;;;;18.45;62.88;98676.06;20781858;28;20608;-66
2023/12/09 18:25:02;;;;;;;0.73;0.50;;;;;;;18.35;62.79;98694.41;20768994;28;20465;-68
2023/12/09 18:35:08;;;;;;;1.75;0.60;;;;;;;18.14;63.16;98660.25;20770474;28;20055;-67
2023/12/09 18:45:10;;;;;;;1.48;0.50;;;;;;;18.21;63.01;98628.81;20771205;28;20516;-66
2023/12/09 18:55:12;;;;;;;1.58;0.60;;;;;;;18.23;62.90;98642.91;20777606;28;20057;-66
2023/12/09 19:05:14;;;;;;;1.42;0.45;;;;;;;18.27;62.52;98654.97;20773005;28;20046;-67
2023/12/09 19:15:18;;;;;;;0.90;0.30;;;;;;;18.24;62.33;98634.63;20762306;28;20045;-66
2023/12/09 19:25:20;;;;;;;0.40;0.40;;;;;;;18.30;62.08;98610.63;20777964;28;20050;-67
2023/12/09 19:35:23;;;;;;;0.98;0.43;;;;;;;18.30;61.99;98626.81;20780757;28;20061;-67
2023/12/09 19:45:28;;;;;;;1.85;0.60;;;;;;;18.06;61.98;98629.69;20771941;28;20053;-66
2023/12/09 19:55:30;;;;;;;1.15;0.65;;;;;;;17.91;62.00;98612.75;20762899;28;20343;-66
2023/12/09 20:05:31;;;;;;;0.40;0.30;;;;;;;17.80;62.03;98668.78;20787595;28;20049;-66
2023/12/09 20:15:33;;;;;;;0.65;0.50;;;;;;;17.72;62.05;98657.28;20749566;28;20045;-66
2023/12/09 20:25:35;;;;;;;0.65;0.40;;;;;;;17.68;62.08;98673.81;20789166;28;20049;-66
2023/12/09 20:35:37;;;;;;;0.43;0.40;;;;;;;17.67;61.99;98687.44;20788322;28;20490;-66
2023/12/09 20:45:40;;;;;;;0.73;0.60;;;;;;;17.66;62.04;98707.31;20752823;28;20049;-66
2023/12/09 20:55:42;;;;;;;1.38;0.60;;;;;;;17.62;61.84;98727.53;20743941;28;20527;-66
2023/12/09 21:05:44;;;;;;;1.25;0.60;;;;;;;17.66;61.85;98758.44;20785267;28;20053;-66
2023/12/09 21:15:48;;;;;;;1.17;0.60;;;;;;;17.68;61.75;98769.88;20787995;28;20131;-66
2023/12/09 21:25:49;;;;;;;2.45;0.82;;;;;;;17.76;61.49;98787.75;20792022;28;20433;-66
2023/12/09 21:35:51;;;;;;;2.05;0.93;;;;;;;17.84;61.03;98811.88;20781353;28;20045;-66
2023/12/09 21:45:53;;;;;;;2.38;0.90;;;;;;;17.87;60.96;98833.03;20774158;28;20059;-67
2023/12/09 21:55:56;;;;;;;2.88;0.90;;;;;;;17.92;60.76;98851.31;20773793;28;20524;-66
2023/12/09 22:05:57;;;;;;;2.40;1.00;;;;;;;17.95;60.46;98861.72;20778148;28;20088;-66
2023/12/09 22:15:59;;;;;;;4.28;1.85;;;;;;;17.96;60.15;98876.84;20778861;28;20053;-66
2023/12/09 22:26:02;;;;;;;4.00;1.10;;;;;;;18.01;60.01;98914.03;20769362;28;20076;-66
2023/12/09 22:36:04;;;;;;;1.85;0.80;;;;;;;17.98;59.71;98909.78;20769797;28;20061;-66
2023/12/09 22:46:06;;;;;;;3.25;0.95;;;;;;;18.09;59.54;98957.81;20790552;28;20132;-66
2023/12/09 22:56:08;;;;;;;3.05;1.00;;;;;;;18.08;59.63;98966.91;20782046;28;20558;-66
2023/12/09 23:06:15;;;;;;;5.32;1.63;;;;;;;17.73;59.58;98928.06;20792827;28;20045;-66
2023/12/09 23:16:17;;;;;;;2.78;1.27;;;;;;;18.07;59.33;99000.25;20776773;28;20098;-66
2023/12/09 23:26:19;;;;;;;4.85;1.42;;;;;;;18.06;59.42;99020.13;20782187;28;20591;-66
2023/12/09 23:36:21;;;;;;;6.00;1.70;;;;;;;18.10;59.16;99021.44;20787091;28;20053;-66
2023/12/09 23:46:22;;;;;;;3.35;1.55;;;;;;;18.10;58.92;99037.59;20783422;28;20049;-67
2023/12/09 23:56:25;;;;;;;3.03;1.10;;;;;;;18.02;58.87;99024.22;20779161;28;20045;-66
